Airfield :
LOGIN :

Register | Disclaimer

   EN    FR    IT 

 










Legend :    VFR   Marginal VFR   IFR   Intensive IFR   Very Intensive IFR
Visi :
Ceiling :
>= 8 km
>= 3000ft
5 to 8 km
1000 to 3000 ft
1500m to 5 km
500 to 1000 ft
800 to 1500m
200 to 500 ft
< 800m
< 200 ft
Symbols :   Thunderstorms  Fog  Heavy snow  Heavy precipitations  Wind > 20 kt
SIGMETs :     Misc.  Thunderstorms  Icing  Turbulence  Mountain Waves  Volcanic Ashes






- Airport Elevation : 37 ft
- IATA code : OLB


LIEO - Olbia Costa Smeralda

CURRENT METAR :
  • 221350Z 33007KT 290V360 9999 FEW030 26/09 Q1014

EXPIRED METARs :
  • 221320Z 30008KT 260V340 9999 FEW035 26/11 Q1014
  • 221250Z 26007KT 200V300 9999 FEW035 26/11 Q1014
  • 221220Z 28006KT 220V310 CAVOK 25/11 Q1015
  • 221150Z 28008KT 250V320 CAVOK 26/10 Q1015
  • 221120Z 24006KT 190V290 CAVOK 26/12 Q1015

TAF TAF LIEO
Valid from the 22 at 12:00 until the 23 at 12:00 UTC


221100Z 2212/2312 26012KT 9999 SCT040
BECMG 2218/2220 VRB05KT



MET'MAP, your aeronautical weather chart ! - Copyright ORBIFLY December 2007 - Disclaimer

ORBIFLY MET'MAP TEAM :

Programming & Development : Alexandra Zaïnal
Concept & original design : Baudouin d'Aumeries
Assistance for programming : Marc-Olivier Méhu
Technical & hardware support : Manuel Goepfert

Contact : metmap@orbifly.com




SOURCES & CREDITS :

   NOAA